sensor_id;sensor_type;location;lat;lon;timestamp;P1;durP1;ratioP1;P2;durP2;ratioP2
21091;SDS011;10704;42.678;23.288;2023-01-29T00:01:52;20.83;;;10.85;;
21091;SDS011;10704;42.678;23.288;2023-01-29T00:04:18;19.00;;;10.93;;
21091;SDS011;10704;42.678;23.288;2023-01-29T00:06:55;22.02;;;10.98;;
21091;SDS011;10704;42.678;23.288;2023-01-29T00:13:20;15.30;;;8.93;;
21091;SDS011;10704;42.678;23.288;2023-01-29T00:15:53;20.50;;;10.43;;
21091;SDS011;10704;42.678;23.288;2023-01-29T00:22:08;16.30;;;8.85;;
21091;SDS011;10704;42.678;23.288;2023-01-29T00:24:34;15.55;;;9.05;;
21091;SDS011;10704;42.678;23.288;2023-01-29T00:27:00;17.15;;;9.00;;
21091;SDS011;10704;42.678;23.288;2023-01-29T00:29:26;17.13;;;8.70;;
21091;SDS011;10704;42.678;23.288;2023-01-29T00:31:52;18.92;;;9.75;;
21091;SDS011;10704;42.678;23.288;2023-01-29T00:37:38;16.30;;;9.05;;
21091;SDS011;10704;42.678;23.288;2023-01-29T00:43:26;19.00;;;9.98;;
21091;SDS011;10704;42.678;23.288;2023-01-29T00:46:11;17.67;;;9.45;;
21091;SDS011;10704;42.678;23.288;2023-01-29T00:52:24;15.25;;;8.90;;
21091;SDS011;10704;42.678;23.288;2023-01-29T00:55:00;18.63;;;9.65;;
21091;SDS011;10704;42.678;23.288;2023-01-29T00:57:27;18.23;;;8.93;;
21091;SDS011;10704;42.678;23.288;2023-01-29T00:59:54;18.85;;;9.57;;
21091;SDS011;10704;42.678;23.288;2023-01-29T01:02:37;17.48;;;9.57;;
21091;SDS011;10704;42.678;23.288;2023-01-29T01:08:34;15.38;;;8.77;;
21091;SDS011;10704;42.678;23.288;2023-01-29T01:11:18;17.88;;;9.68;;
21091;SDS011;10704;42.678;23.288;2023-01-29T01:13:45;17.70;;;10.10;;
21091;SDS011;10704;42.678;23.288;2023-01-29T01:16:12;18.55;;;9.05;;
21091;SDS011;10704;42.678;23.288;2023-01-29T01:18:39;18.45;;;9.52;;
21091;SDS011;10704;42.678;23.288;2023-01-29T01:21:05;16.23;;;8.70;;
21091;SDS011;10704;42.678;23.288;2023-01-29T01:23:31;17.30;;;9.52;;
21091;SDS011;10704;42.678;23.288;2023-01-29T01:33:32;16.05;;;9.80;;
21091;SDS011;10704;42.678;23.288;2023-01-29T01:36:00;17.58;;;10.15;;
21091;SDS011;10704;42.678;23.288;2023-01-29T01:38:26;19.75;;;10.02;;
21091;SDS011;10704;42.678;23.288;2023-01-29T01:40:53;20.63;;;10.60;;
21091;SDS011;10704;42.678;23.288;2023-01-29T01:43:18;18.17;;;10.32;;
21091;SDS011;10704;42.678;23.288;2023-01-29T01:45:44;18.85;;;10.07;;
21091;SDS011;10704;42.678;23.288;2023-01-29T01:52:00;15.43;;;8.93;;
21091;SDS011;10704;42.678;23.288;2023-01-29T01:54:27;15.20;;;8.68;;
21091;SDS011;10704;42.678;23.288;2023-01-29T02:00:43;13.57;;;8.35;;
21091;SDS011;10704;42.678;23.288;2023-01-29T02:03:09;17.58;;;9.48;;
21091;SDS011;10704;42.678;23.288;2023-01-29T02:10:04;15.73;;;8.73;;
21091;SDS011;10704;42.678;23.288;2023-01-29T02:12:35;16.75;;;9.48;;
21091;SDS011;10704;42.678;23.288;2023-01-29T02:18:49;18.10;;;9.77;;
21091;SDS011;10704;42.678;23.288;2023-01-29T02:32:14;17.90;;;9.30;;
21091;SDS011;10704;42.678;23.288;2023-01-29T02:40:45;17.45;;;9.60;;
21091;SDS011;10704;42.678;23.288;2023-01-29T02:47:11;21.75;;;11.00;;
21091;SDS011;10704;42.678;23.288;2023-01-29T02:56:01;18.70;;;9.30;;
21091;SDS011;10704;42.678;23.288;2023-01-29T02:58:53;16.95;;;9.82;;
21091;SDS011;10704;42.678;23.288;2023-01-29T03:05:30;21.65;;;10.68;;
21091;SDS011;10704;42.678;23.288;2023-01-29T03:07:59;20.65;;;11.18;;
21091;SDS011;10704;42.678;23.288;2023-01-29T03:10:35;19.77;;;10.75;;
21091;SDS011;10704;42.678;23.288;2023-01-29T03:13:18;17.63;;;10.13;;
21091;SDS011;10704;42.678;23.288;2023-01-29T03:18:48;18.52;;;10.10;;
21091;SDS011;10704;42.678;23.288;2023-01-29T03:21:33;19.63;;;10.30;;
21091;SDS011;10704;42.678;23.288;2023-01-29T03:27:29;14.95;;;8.05;;
21091;SDS011;10704;42.678;23.288;2023-01-29T03:30:19;14.90;;;8.07;;
21091;SDS011;10704;42.678;23.288;2023-01-29T03:33:20;15.88;;;8.23;;
21091;SDS011;10704;42.678;23.288;2023-01-29T03:36:13;14.85;;;8.18;;
21091;SDS011;10704;42.678;23.288;2023-01-29T03:38:42;16.08;;;8.75;;
21091;SDS011;10704;42.678;23.288;2023-01-29T03:46:55;15.82;;;8.48;;
21091;SDS011;10704;42.678;23.288;2023-01-29T03:49:35;14.10;;;7.95;;
21091;SDS011;10704;42.678;23.288;2023-01-29T03:57:45;12.40;;;7.10;;
21091;SDS011;10704;42.678;23.288;2023-01-29T04:00:19;13.48;;;7.43;;
21091;SDS011;10704;42.678;23.288;2023-01-29T04:06:48;16.42;;;8.35;;
21091;SDS011;10704;42.678;23.288;2023-01-29T04:09:18;14.07;;;7.40;;
21091;SDS011;10704;42.678;23.288;2023-01-29T04:12:10;12.45;;;7.38;;
21091;SDS011;10704;42.678;23.288;2023-01-29T04:14:41;13.48;;;8.13;;
21091;SDS011;10704;42.678;23.288;2023-01-29T04:17:13;12.57;;;7.80;;
21091;SDS011;10704;42.678;23.288;2023-01-29T04:19:53;15.57;;;7.90;;
21091;SDS011;10704;42.678;23.288;2023-01-29T04:22:21;13.48;;;8.63;;
21091;SDS011;10704;42.678;23.288;2023-01-29T04:24:52;12.85;;;7.45;;
21091;SDS011;10704;42.678;23.288;2023-01-29T04:41:21;14.70;;;7.35;;
21091;SDS011;10704;42.678;23.288;2023-01-29T05:01:54;10.82;;;6.53;;
21091;SDS011;10704;42.678;23.288;2023-01-29T05:04:21;12.20;;;6.45;;
21091;SDS011;10704;42.678;23.288;2023-01-29T05:06:48;11.57;;;6.30;;
21091;SDS011;10704;42.678;23.288;2023-01-29T05:09:15;11.52;;;5.72;;
21091;SDS011;10704;42.678;23.288;2023-01-29T05:11:42;11.27;;;6.10;;
21091;SDS011;10704;42.678;23.288;2023-01-29T05:14:10;12.15;;;6.10;;
21091;SDS011;10704;42.678;23.288;2023-01-29T05:16:42;12.02;;;6.93;;
21091;SDS011;10704;42.678;23.288;2023-01-29T05:19:12;10.95;;;6.55;;
21091;SDS011;10704;42.678;23.288;2023-01-29T05:21:41;10.40;;;6.20;;
21091;SDS011;10704;42.678;23.288;2023-01-29T05:24:11;11.30;;;6.07;;
21091;SDS011;10704;42.678;23.288;2023-01-29T05:33:45;10.98;;;6.07;;
21091;SDS011;10704;42.678;23.288;2023-01-29T05:43:46;8.85;;;5.88;;
21091;SDS011;10704;42.678;23.288;2023-01-29T05:46:23;11.90;;;7.18;;
21091;SDS011;10704;42.678;23.288;2023-01-29T05:48:51;9.82;;;6.40;;
21091;SDS011;10704;42.678;23.288;2023-01-29T05:54:55;10.68;;;6.28;;
21091;SDS011;10704;42.678;23.288;2023-01-29T05:57:21;13.05;;;7.13;;
21091;SDS011;10704;42.678;23.288;2023-01-29T05:59:46;15.45;;;6.57;;
21091;SDS011;10704;42.678;23.288;2023-01-29T06:02:12;14.77;;;7.40;;
21091;SDS011;10704;42.678;23.288;2023-01-29T06:04:38;11.57;;;6.90;;
21091;SDS011;10704;42.678;23.288;2023-01-29T06:07:04;11.35;;;7.05;;
21091;SDS011;10704;42.678;23.288;2023-01-29T06:09:32;11.73;;;6.90;;
21091;SDS011;10704;42.678;23.288;2023-01-29T06:11:58;13.27;;;7.35;;
21091;SDS011;10704;42.678;23.288;2023-01-29T06:14:24;12.98;;;7.32;;
21091;SDS011;10704;42.678;23.288;2023-01-29T06:19:52;14.55;;;7.65;;
21091;SDS011;10704;42.678;23.288;2023-01-29T06:29:52;12.00;;;7.43;;
21091;SDS011;10704;42.678;23.288;2023-01-29T06:32:18;13.65;;;8.13;;
21091;SDS011;10704;42.678;23.288;2023-01-29T06:34:44;16.08;;;9.65;;
21091;SDS011;10704;42.678;23.288;2023-01-29T06:37:10;13.80;;;8.25;;
21091;SDS011;10704;42.678;23.288;2023-01-29T06:39:36;16.10;;;10.00;;
21091;SDS011;10704;42.678;23.288;2023-01-29T06:45:50;17.98;;;10.68;;
21091;SDS011;10704;42.678;23.288;2023-01-29T06:48:18;18.05;;;9.95;;
21091;SDS011;10704;42.678;23.288;2023-01-29T06:50:45;14.35;;;8.50;;
21091;SDS011;10704;42.678;23.288;2023-01-29T06:53:11;17.63;;;9.70;;
21091;SDS011;10704;42.678;23.288;2023-01-29T06:55:37;17.38;;;10.40;;
21091;SDS011;10704;42.678;23.288;2023-01-29T06:58:04;15.98;;;9.63;;
21091;SDS011;10704;42.678;23.288;2023-01-29T07:00:34;21.00;;;11.27;;
21091;SDS011;10704;42.678;23.288;2023-01-29T07:03:00;16.35;;;8.90;;
21091;SDS011;10704;42.678;23.288;2023-01-29T07:05:27;18.98;;;9.95;;
21091;SDS011;10704;42.678;23.288;2023-01-29T07:07:53;17.33;;;10.13;;
21091;SDS011;10704;42.678;23.288;2023-01-29T07:10:19;21.92;;;12.05;;
21091;SDS011;10704;42.678;23.288;2023-01-29T07:16:32;21.92;;;10.98;;
21091;SDS011;10704;42.678;23.288;2023-01-29T07:18:59;20.20;;;11.02;;
21091;SDS011;10704;42.678;23.288;2023-01-29T07:21:25;17.60;;;9.80;;
21091;SDS011;10704;42.678;23.288;2023-01-29T07:23:52;17.25;;;10.70;;
21091;SDS011;10704;42.678;23.288;2023-01-29T07:26:18;19.23;;;10.55;;
21091;SDS011;10704;42.678;23.288;2023-01-29T07:28:43;18.63;;;10.02;;
21091;SDS011;10704;42.678;23.288;2023-01-29T07:31:10;20.40;;;11.50;;
21091;SDS011;10704;42.678;23.288;2023-01-29T07:37:25;23.08;;;11.52;;
21091;SDS011;10704;42.678;23.288;2023-01-29T07:39:51;18.85;;;10.98;;
21091;SDS011;10704;42.678;23.288;2023-01-29T07:42:17;17.63;;;10.70;;
21091;SDS011;10704;42.678;23.288;2023-01-29T07:44:43;18.88;;;9.70;;
21091;SDS011;10704;42.678;23.288;2023-01-29T07:47:09;20.70;;;11.60;;
21091;SDS011;10704;42.678;23.288;2023-01-29T07:49:35;26.10;;;12.52;;
21091;SDS011;10704;42.678;23.288;2023-01-29T07:52:01;20.58;;;10.68;;
21091;SDS011;10704;42.678;23.288;2023-01-29T07:54:27;21.63;;;11.95;;
21091;SDS011;10704;42.678;23.288;2023-01-29T07:56:53;18.90;;;10.98;;
21091;SDS011;10704;42.678;23.288;2023-01-29T07:59:19;22.38;;;10.32;;
21091;SDS011;10704;42.678;23.288;2023-01-29T08:01:45;23.00;;;12.18;;
21091;SDS011;10704;42.678;23.288;2023-01-29T08:04:11;25.33;;;11.85;;
21091;SDS011;10704;42.678;23.288;2023-01-29T08:06:37;20.13;;;11.55;;
21091;SDS011;10704;42.678;23.288;2023-01-29T08:09:03;19.65;;;10.93;;
21091;SDS011;10704;42.678;23.288;2023-01-29T08:11:29;16.40;;;9.73;;
21091;SDS011;10704;42.678;23.288;2023-01-29T08:13:54;19.67;;;10.57;;
21091;SDS011;10704;42.678;23.288;2023-01-29T08:16:21;19.33;;;11.23;;
21091;SDS011;10704;42.678;23.288;2023-01-29T08:18:48;22.30;;;11.85;;
21091;SDS011;10704;42.678;23.288;2023-01-29T08:21:14;24.05;;;13.82;;
21091;SDS011;10704;42.678;23.288;2023-01-29T08:23:40;21.30;;;10.93;;
21091;SDS011;10704;42.678;23.288;2023-01-29T08:26:06;25.52;;;13.52;;
21091;SDS011;10704;42.678;23.288;2023-01-29T08:28:33;28.88;;;12.35;;
21091;SDS011;10704;42.678;23.288;2023-01-29T08:30:59;29.48;;;14.82;;
21091;SDS011;10704;42.678;23.288;2023-01-29T08:33:26;27.00;;;15.55;;
21091;SDS011;10704;42.678;23.288;2023-01-29T08:39:40;21.50;;;12.20;;
21091;SDS011;10704;42.678;23.288;2023-01-29T08:42:06;19.63;;;12.00;;
21091;SDS011;10704;42.678;23.288;2023-01-29T08:44:32;27.88;;;14.27;;
21091;SDS011;10704;42.678;23.288;2023-01-29T08:46:58;44.97;;;20.35;;
21091;SDS011;10704;42.678;23.288;2023-01-29T08:49:24;25.10;;;12.35;;
21091;SDS011;10704;42.678;23.288;2023-01-29T08:51:50;27.27;;;14.45;;
21091;SDS011;10704;42.678;23.288;2023-01-29T08:54:16;22.92;;;12.43;;
21091;SDS011;10704;42.678;23.288;2023-01-29T08:56:42;19.23;;;10.75;;
21091;SDS011;10704;42.678;23.288;2023-01-29T08:59:08;19.40;;;10.40;;
21091;SDS011;10704;42.678;23.288;2023-01-29T09:01:34;19.70;;;11.00;;
21091;SDS011;10704;42.678;23.288;2023-01-29T09:04:01;27.17;;;13.98;;
21091;SDS011;10704;42.678;23.288;2023-01-29T09:06:26;37.45;;;18.05;;
21091;SDS011;10704;42.678;23.288;2023-01-29T09:08:52;33.05;;;17.58;;
21091;SDS011;10704;42.678;23.288;2023-01-29T09:11:18;34.00;;;18.33;;
21091;SDS011;10704;42.678;23.288;2023-01-29T09:13:44;34.03;;;17.05;;
21091;SDS011;10704;42.678;23.288;2023-01-29T09:16:10;26.75;;;14.60;;
21091;SDS011;10704;42.678;23.288;2023-01-29T09:18:36;27.98;;;14.07;;
21091;SDS011;10704;42.678;23.288;2023-01-29T09:21:02;25.05;;;14.35;;
21091;SDS011;10704;42.678;23.288;2023-01-29T09:23:29;38.15;;;15.65;;
21091;SDS011;10704;42.678;23.288;2023-01-29T09:25:55;25.63;;;13.25;;
21091;SDS011;10704;42.678;23.288;2023-01-29T09:28:22;31.77;;;17.00;;
21091;SDS011;10704;42.678;23.288;2023-01-29T09:30:52;22.77;;;12.55;;
21091;SDS011;10704;42.678;23.288;2023-01-29T09:33:18;22.52;;;12.85;;
21091;SDS011;10704;42.678;23.288;2023-01-29T09:35:44;22.23;;;12.38;;
21091;SDS011;10704;42.678;23.288;2023-01-29T09:38:11;22.58;;;11.85;;
21091;SDS011;10704;42.678;23.288;2023-01-29T09:43:19;35.75;;;15.85;;
21091;SDS011;10704;42.678;23.288;2023-01-29T09:48:43;25.45;;;13.68;;
21091;SDS011;10704;42.678;23.288;2023-01-29T09:51:24;21.40;;;12.60;;
21091;SDS011;10704;42.678;23.288;2023-01-29T09:54:12;24.33;;;13.45;;
21091;SDS011;10704;42.678;23.288;2023-01-29T09:56:55;24.05;;;13.25;;
21091;SDS011;10704;42.678;23.288;2023-01-29T09:59:22;29.25;;;15.10;;
21091;SDS011;10704;42.678;23.288;2023-01-29T10:01:54;23.45;;;13.50;;
21091;SDS011;10704;42.678;23.288;2023-01-29T10:04:36;24.17;;;13.13;;
21091;SDS011;10704;42.678;23.288;2023-01-29T10:07:25;25.00;;;13.68;;
21091;SDS011;10704;42.678;23.288;2023-01-29T10:18:42;27.38;;;14.30;;
21091;SDS011;10704;42.678;23.288;2023-01-29T10:21:38;26.73;;;14.55;;
21091;SDS011;10704;42.678;23.288;2023-01-29T10:24:58;27.65;;;14.63;;
21091;SDS011;10704;42.678;23.288;2023-01-29T10:27:30;29.08;;;14.63;;
21091;SDS011;10704;42.678;23.288;2023-01-29T10:29:59;23.27;;;13.10;;
21091;SDS011;10704;42.678;23.288;2023-01-29T10:32:28;24.52;;;13.77;;
21091;SDS011;10704;42.678;23.288;2023-01-29T10:34:56;25.70;;;13.25;;
21091;SDS011;10704;42.678;23.288;2023-01-29T10:37:30;29.73;;;15.43;;
21091;SDS011;10704;42.678;23.288;2023-01-29T10:43:02;35.50;;;18.02;;
21091;SDS011;10704;42.678;23.288;2023-01-29T10:59:45;29.55;;;14.70;;
21091;SDS011;10704;42.678;23.288;2023-01-29T11:02:08;32.90;;;16.20;;
21091;SDS011;10704;42.678;23.288;2023-01-29T11:04:42;39.55;;;17.33;;
21091;SDS011;10704;42.678;23.288;2023-01-29T11:07:08;32.15;;;16.38;;
21091;SDS011;10704;42.678;23.288;2023-01-29T11:09:59;29.08;;;15.13;;
21091;SDS011;10704;42.678;23.288;2023-01-29T11:12:22;35.10;;;16.73;;
21091;SDS011;10704;42.678;23.288;2023-01-29T11:14:59;31.08;;;16.65;;
21091;SDS011;10704;42.678;23.288;2023-01-29T11:17:32;26.88;;;14.68;;
21091;SDS011;10704;42.678;23.288;2023-01-29T11:19:58;29.00;;;15.50;;
21091;SDS011;10704;42.678;23.288;2023-01-29T11:22:25;39.78;;;19.58;;
21091;SDS011;10704;42.678;23.288;2023-01-29T11:25:09;38.90;;;19.55;;
21091;SDS011;10704;42.678;23.288;2023-01-29T11:27:51;39.15;;;19.08;;
21091;SDS011;10704;42.678;23.288;2023-01-29T11:32:49;34.13;;;16.65;;
21091;SDS011;10704;42.678;23.288;2023-01-29T11:35:32;36.45;;;17.17;;
21091;SDS011;10704;42.678;23.288;2023-01-29T11:40:40;31.60;;;15.23;;
21091;SDS011;10704;42.678;23.288;2023-01-29T11:45:46;30.50;;;15.32;;
21091;SDS011;10704;42.678;23.288;2023-01-29T11:48:15;29.67;;;14.82;;
21091;SDS011;10704;42.678;23.288;2023-01-29T11:50:55;31.42;;;15.98;;
21091;SDS011;10704;42.678;23.288;2023-01-29T11:53:43;32.05;;;15.90;;
21091;SDS011;10704;42.678;23.288;2023-01-29T11:58:42;25.73;;;13.35;;
21091;SDS011;10704;42.678;23.288;2023-01-29T12:01:09;29.15;;;15.10;;
21091;SDS011;10704;42.678;23.288;2023-01-29T12:03:38;27.77;;;14.25;;
21091;SDS011;10704;42.678;23.288;2023-01-29T12:08:53;28.00;;;15.75;;
21091;SDS011;10704;42.678;23.288;2023-01-29T12:11:29;29.10;;;14.73;;
21091;SDS011;10704;42.678;23.288;2023-01-29T12:14:04;33.28;;;15.52;;
21091;SDS011;10704;42.678;23.288;2023-01-29T12:19:52;33.30;;;16.58;;
21091;SDS011;10704;42.678;23.288;2023-01-29T12:40:59;32.72;;;16.67;;
21091;SDS011;10704;42.678;23.288;2023-01-29T12:43:52;31.08;;;17.23;;
21091;SDS011;10704;42.678;23.288;2023-01-29T12:46:26;24.67;;;14.00;;
21091;SDS011;10704;42.678;23.288;2023-01-29T12:48:55;25.50;;;14.57;;
21091;SDS011;10704;42.678;23.288;2023-01-29T12:51:25;28.25;;;15.60;;
21091;SDS011;10704;42.678;23.288;2023-01-29T12:54:05;27.33;;;14.65;;
21091;SDS011;10704;42.678;23.288;2023-01-29T13:00:21;24.77;;;13.52;;
21091;SDS011;10704;42.678;23.288;2023-01-29T13:05:22;31.90;;;16.83;;
21091;SDS011;10704;42.678;23.288;2023-01-29T13:08:02;31.48;;;16.15;;
21091;SDS011;10704;42.678;23.288;2023-01-29T13:17:43;25.35;;;13.38;;
21091;SDS011;10704;42.678;23.288;2023-01-29T13:20:15;24.33;;;13.63;;
21091;SDS011;10704;42.678;23.288;2023-01-29T13:28:59;36.80;;;17.20;;
21091;SDS011;10704;42.678;23.288;2023-01-29T13:31:28;29.85;;;16.95;;
21091;SDS011;10704;42.678;23.288;2023-01-29T13:36:36;32.03;;;17.02;;
21091;SDS011;10704;42.678;23.288;2023-01-29T13:42:55;31.45;;;17.65;;
21091;SDS011;10704;42.678;23.288;2023-01-29T13:52:29;31.52;;;17.52;;
21091;SDS011;10704;42.678;23.288;2023-01-29T14:00:55;34.85;;;17.50;;
21091;SDS011;10704;42.678;23.288;2023-01-29T14:05:58;33.22;;;17.48;;
21091;SDS011;10704;42.678;23.288;2023-01-29T14:11:36;36.92;;;18.65;;
21091;SDS011;10704;42.678;23.288;2023-01-29T14:14:48;35.00;;;17.60;;
21091;SDS011;10704;42.678;23.288;2023-01-29T14:17:13;31.45;;;16.02;;
21091;SDS011;10704;42.678;23.288;2023-01-29T14:19:48;35.30;;;18.52;;
21091;SDS011;10704;42.678;23.288;2023-01-29T14:22:22;31.20;;;16.35;;
21091;SDS011;10704;42.678;23.288;2023-01-29T14:24:54;37.38;;;19.65;;
21091;SDS011;10704;42.678;23.288;2023-01-29T14:27:24;36.58;;;18.13;;
21091;SDS011;10704;42.678;23.288;2023-01-29T14:52:09;40.15;;;17.95;;
21091;SDS011;10704;42.678;23.288;2023-01-29T14:54:36;34.20;;;18.60;;
21091;SDS011;10704;42.678;23.288;2023-01-29T14:57:04;39.17;;;18.17;;
21091;SDS011;10704;42.678;23.288;2023-01-29T14:59:47;35.38;;;18.17;;
21091;SDS011;10704;42.678;23.288;2023-01-29T15:02:24;36.05;;;17.48;;
21091;SDS011;10704;42.678;23.288;2023-01-29T15:04:58;34.90;;;18.40;;
21091;SDS011;10704;42.678;23.288;2023-01-29T15:07:28;38.47;;;18.98;;
21091;SDS011;10704;42.678;23.288;2023-01-29T15:13:51;37.08;;;18.23;;
21091;SDS011;10704;42.678;23.288;2023-01-29T15:16:23;38.42;;;21.45;;
21091;SDS011;10704;42.678;23.288;2023-01-29T15:18:56;40.67;;;20.45;;
21091;SDS011;10704;42.678;23.288;2023-01-29T15:21:36;39.78;;;19.73;;
21091;SDS011;10704;42.678;23.288;2023-01-29T15:24:03;41.58;;;18.90;;
21091;SDS011;10704;42.678;23.288;2023-01-29T15:30:20;31.20;;;16.48;;
21091;SDS011;10704;42.678;23.288;2023-01-29T15:32:56;30.27;;;15.40;;
21091;SDS011;10704;42.678;23.288;2023-01-29T15:39:23;34.65;;;17.15;;
21091;SDS011;10704;42.678;23.288;2023-01-29T15:42:03;41.92;;;21.05;;
21091;SDS011;10704;42.678;23.288;2023-01-29T15:44:36;51.55;;;23.17;;
21091;SDS011;10704;42.678;23.288;2023-01-29T15:47:09;47.53;;;22.98;;
21091;SDS011;10704;42.678;23.288;2023-01-29T15:49:36;41.28;;;22.35;;
21091;SDS011;10704;42.678;23.288;2023-01-29T15:52:07;45.10;;;22.23;;
21091;SDS011;10704;42.678;23.288;2023-01-29T15:54:40;43.00;;;21.98;;
21091;SDS011;10704;42.678;23.288;2023-01-29T15:57:06;43.53;;;23.05;;
21091;SDS011;10704;42.678;23.288;2023-01-29T15:59:48;44.35;;;22.83;;
21091;SDS011;10704;42.678;23.288;2023-01-29T16:02:31;49.30;;;24.65;;
21091;SDS011;10704;42.678;23.288;2023-01-29T16:04:59;43.50;;;22.88;;
21091;SDS011;10704;42.678;23.288;2023-01-29T16:07:26;44.72;;;22.38;;
21091;SDS011;10704;42.678;23.288;2023-01-29T16:09:54;41.30;;;22.02;;
21091;SDS011;10704;42.678;23.288;2023-01-29T16:12:22;39.95;;;21.35;;
21091;SDS011;10704;42.678;23.288;2023-01-29T16:14:48;47.83;;;23.05;;
21091;SDS011;10704;42.678;23.288;2023-01-29T16:21:06;38.15;;;21.17;;
21091;SDS011;10704;42.678;23.288;2023-01-29T16:27:44;40.35;;;22.35;;
21091;SDS011;10704;42.678;23.288;2023-01-29T16:30:14;43.47;;;21.75;;
21091;SDS011;10704;42.678;23.288;2023-01-29T16:51:12;43.60;;;22.23;;
21091;SDS011;10704;42.678;23.288;2023-01-29T16:53:55;44.13;;;22.95;;
21091;SDS011;10704;42.678;23.288;2023-01-29T16:56:25;41.78;;;21.77;;
21091;SDS011;10704;42.678;23.288;2023-01-29T16:58:54;46.15;;;22.08;;
21091;SDS011;10704;42.678;23.288;2023-01-29T17:01:22;37.20;;;20.15;;
21091;SDS011;10704;42.678;23.288;2023-01-29T17:03:52;36.38;;;19.05;;
21091;SDS011;10704;42.678;23.288;2023-01-29T17:10:24;38.97;;;19.20;;
21091;SDS011;10704;42.678;23.288;2023-01-29T17:28:01;29.38;;;15.25;;
21091;SDS011;10704;42.678;23.288;2023-01-29T17:30:29;30.05;;;15.15;;
21091;SDS011;10704;42.678;23.288;2023-01-29T17:32:59;35.72;;;17.48;;
21091;SDS011;10704;42.678;23.288;2023-01-29T17:35:28;32.08;;;16.67;;
21091;SDS011;10704;42.678;23.288;2023-01-29T17:41:42;44.38;;;19.38;;
21091;SDS011;10704;42.678;23.288;2023-01-29T17:44:11;42.10;;;21.80;;
21091;SDS011;10704;42.678;23.288;2023-01-29T17:46:37;43.10;;;20.20;;
21091;SDS011;10704;42.678;23.288;2023-01-29T17:49:03;41.83;;;22.50;;
21091;SDS011;10704;42.678;23.288;2023-01-29T17:51:34;53.90;;;24.98;;
21091;SDS011;10704;42.678;23.288;2023-01-29T17:53:59;49.33;;;23.20;;
21091;SDS011;10704;42.678;23.288;2023-01-29T17:56:25;46.25;;;23.50;;
21091;SDS011;10704;42.678;23.288;2023-01-29T17:58:51;45.05;;;22.75;;
21091;SDS011;10704;42.678;23.288;2023-01-29T18:01:17;42.67;;;21.17;;
21091;SDS011;10704;42.678;23.288;2023-01-29T18:03:43;45.65;;;23.45;;
21091;SDS011;10704;42.678;23.288;2023-01-29T18:06:09;44.50;;;22.95;;
21091;SDS011;10704;42.678;23.288;2023-01-29T18:08:38;47.53;;;24.95;;
21091;SDS011;10704;42.678;23.288;2023-01-29T18:11:04;45.80;;;23.67;;
21091;SDS011;10704;42.678;23.288;2023-01-29T18:13:30;47.13;;;24.63;;
21091;SDS011;10704;42.678;23.288;2023-01-29T18:16:07;59.65;;;25.88;;
21091;SDS011;10704;42.678;23.288;2023-01-29T18:18:33;48.88;;;24.20;;
21091;SDS011;10704;42.678;23.288;2023-01-29T18:24:02;47.53;;;23.88;;
21091;SDS011;10704;42.678;23.288;2023-01-29T18:26:34;42.78;;;21.27;;
21091;SDS011;10704;42.678;23.288;2023-01-29T18:39:03;41.75;;;19.23;;
21091;SDS011;10704;42.678;23.288;2023-01-29T18:41:30;44.90;;;21.20;;
21091;SDS011;10704;42.678;23.288;2023-01-29T18:47:43;54.00;;;27.48;;
21091;SDS011;10704;42.678;23.288;2023-01-29T18:50:10;55.08;;;28.08;;
21091;SDS011;10704;42.678;23.288;2023-01-29T18:55:59;48.70;;;24.52;;
21091;SDS011;10704;42.678;23.288;2023-01-29T19:02:17;42.92;;;21.25;;
21091;SDS011;10704;42.678;23.288;2023-01-29T19:04:43;39.70;;;19.60;;
21091;SDS011;10704;42.678;23.288;2023-01-29T19:07:10;37.58;;;18.20;;
21091;SDS011;10704;42.678;23.288;2023-01-29T19:09:37;44.72;;;20.00;;
21091;SDS011;10704;42.678;23.288;2023-01-29T19:12:09;49.08;;;22.17;;
21091;SDS011;10704;42.678;23.288;2023-01-29T19:14:35;44.85;;;20.92;;
21091;SDS011;10704;42.678;23.288;2023-01-29T19:17:01;41.53;;;19.80;;
21091;SDS011;10704;42.678;23.288;2023-01-29T19:19:28;38.92;;;20.02;;
21091;SDS011;10704;42.678;23.288;2023-01-29T19:21:55;42.83;;;20.25;;
21091;SDS011;10704;42.678;23.288;2023-01-29T19:24:21;40.15;;;19.98;;
21091;SDS011;10704;42.678;23.288;2023-01-29T19:26:48;42.85;;;20.95;;
21091;SDS011;10704;42.678;23.288;2023-01-29T19:29:14;42.95;;;21.90;;
21091;SDS011;10704;42.678;23.288;2023-01-29T19:31:41;45.13;;;22.42;;
21091;SDS011;10704;42.678;23.288;2023-01-29T19:44:32;54.15;;;25.35;;
21091;SDS011;10704;42.678;23.288;2023-01-29T19:46:59;53.25;;;26.27;;
21091;SDS011;10704;42.678;23.288;2023-01-29T19:49:25;57.00;;;28.42;;
21091;SDS011;10704;42.678;23.288;2023-01-29T19:51:51;57.17;;;29.45;;
21091;SDS011;10704;42.678;23.288;2023-01-29T19:54:20;59.30;;;31.00;;
21091;SDS011;10704;42.678;23.288;2023-01-29T19:56:46;65.25;;;34.83;;
21091;SDS011;10704;42.678;23.288;2023-01-29T19:59:11;65.45;;;35.90;;
21091;SDS011;10704;42.678;23.288;2023-01-29T20:01:38;71.88;;;37.63;;
21091;SDS011;10704;42.678;23.288;2023-01-29T20:04:03;82.70;;;42.95;;
21091;SDS011;10704;42.678;23.288;2023-01-29T20:16:18;50.70;;;23.77;;
21091;SDS011;10704;42.678;23.288;2023-01-29T20:18:45;43.10;;;21.45;;
21091;SDS011;10704;42.678;23.288;2023-01-29T20:21:12;38.90;;;17.52;;
21091;SDS011;10704;42.678;23.288;2023-01-29T20:23:40;38.92;;;17.50;;
21091;SDS011;10704;42.678;23.288;2023-01-29T20:26:06;41.85;;;18.85;;
21091;SDS011;10704;42.678;23.288;2023-01-29T20:28:35;37.50;;;17.10;;
21091;SDS011;10704;42.678;23.288;2023-01-29T20:31:02;42.65;;;18.92;;
21091;SDS011;10704;42.678;23.288;2023-01-29T20:33:28;41.13;;;19.63;;
21091;SDS011;10704;42.678;23.288;2023-01-29T20:35:56;46.53;;;19.98;;
21091;SDS011;10704;42.678;23.288;2023-01-29T20:38:23;45.85;;;20.30;;
21091;SDS011;10704;42.678;23.288;2023-01-29T20:40:54;44.80;;;19.60;;
21091;SDS011;10704;42.678;23.288;2023-01-29T20:43:26;40.85;;;19.48;;
21091;SDS011;10704;42.678;23.288;2023-01-29T20:49:10;33.22;;;15.88;;
21091;SDS011;10704;42.678;23.288;2023-01-29T20:51:36;31.80;;;15.55;;
21091;SDS011;10704;42.678;23.288;2023-01-29T20:54:02;35.55;;;14.75;;
21091;SDS011;10704;42.678;23.288;2023-01-29T20:56:28;30.10;;;15.35;;
21091;SDS011;10704;42.678;23.288;2023-01-29T20:58:54;37.30;;;15.25;;
21091;SDS011;10704;42.678;23.288;2023-01-29T21:01:20;33.47;;;15.38;;
21091;SDS011;10704;42.678;23.288;2023-01-29T21:03:46;33.05;;;15.27;;
21091;SDS011;10704;42.678;23.288;2023-01-29T21:06:12;32.33;;;15.10;;
21091;SDS011;10704;42.678;23.288;2023-01-29T21:08:38;32.47;;;13.93;;
21091;SDS011;10704;42.678;23.288;2023-01-29T21:11:05;32.58;;;14.95;;
21091;SDS011;10704;42.678;23.288;2023-01-29T21:13:32;35.45;;;16.20;;
21091;SDS011;10704;42.678;23.288;2023-01-29T21:15:58;31.63;;;15.70;;
21091;SDS011;10704;42.678;23.288;2023-01-29T21:18:24;37.65;;;16.40;;
21091;SDS011;10704;42.678;23.288;2023-01-29T21:20:51;33.80;;;14.15;;
21091;SDS011;10704;42.678;23.288;2023-01-29T21:23:17;38.42;;;16.45;;